UTAVUTAM

Guest
Details From UTAV - TURKMENABAT
To UTAM - MARY
Flight Number -
Tags generated
Created
Modified
Stats Distance 120 nm / 222 km
Max Altitude 4,900 ft / 1,494 m
Waypoints 3
Social Downloads 0
Likes 0
Share VATSIM

Download

Looking for another format? Having issues loading an existing format? Contact us
Advertisement - Login to hide

Notes

Basic altitude profile: - Ascent Rate: 2500ft/min - Ascent Speed: 250kts - Cruise Altitude: 35000ft - Cruise Speed: 420kts - Descent Rate: 1500ft/min - Descent Speed: 250kts Options: - Use NATs: yes - Use PACOTS: yes - Use low airways: yes - Use high airways: yes

Route

UTAV LBA TS13 UTAM

ID Type Via Altitude Latitude Longitude Leg Dist Tot Dist Heading (true) Name
O UTAV APT - 0 ft / 0 m 39.08333˚ 63.61333˚ - 0 nm - TURKMENABAT
LBA VOR - 100 ft / 30 m 39.09000˚ 63.61167˚ 0 nm 0 nm 349° / 349° TURKMENABAT VOR-DME
O UTAM APT TS13 (AWY-LO) 4,900 ft / 1,494 m 37.61951˚ 61.89681˚ 119 nm 120 nm 223° / 222° MARY

Altitude Profile

Advertisement - Login to hide

UTAV

Details ICAO UTAV
Name TURKMENABAT
Region Tajikistan, Turkmenistan and Uzbekistan
Timezone Asia/Ashgabat (UTC+5.0)
Stats Elevation 630 ft / 192 m (AMSL)
Location 39.083333° 63.613334°
Runways 1
Magnetic Variation 5.048° E

METAR

UTAV 160200Z 04004KT 0500R0550 FZFG VV003 M05/M06 Q1029 NOSIG

Decode

TAF

TAF UTAV 152230Z 1600/1624 36012KT 2000 BR BKN008 530001 TEMPO 1600/1606 06014KT 0400 FZFG FZDZ VV002 BECMG 1606/1607 10014KT 5000 SCT030

Decode

Departure Runways

ID Width Length Bearing (true) Bearing (mag) Surface Threshold Offset Overrun Length
15 138 ft / 42 m 8,945 ft / 2,727 m 155.02° 149.97° Asphalt 0 ft / 0 m 0 ft / 0 m
33 138 ft / 42 m 8,945 ft / 2,727 m 335.03° 329.98° Asphalt 0 ft / 0 m 0 ft / 0 m

UTAM

Details ICAO UTAM (MYP)
Name MARY
Region Tajikistan, Turkmenistan and Uzbekistan
Timezone Asia/Ashgabat (UTC+5.0)
Stats Elevation 728 ft / 222 m (AMSL)
Location 37.619514° 61.896806°
Runways 2
Magnetic Variation 4.646° E

METAR

UTAM 160200Z 36006KT 3300 BR OVC003 M03/M05 Q1027 NOSIG

Decode

TAF

TAF TAF UTAM 152230Z 1523/1624 09014KT 1000 BR BKN004 530002 TEMPO 1523/1605 03010KT 0500 FZFG VV002 BECMG 1605/1607 10016KT 5000 SCT010 BKN100 TEMPO 1615/1620 VRB04KT 2000 BR BKN005

Decode

Destination Runways

ID Width Length Bearing (true) Bearing (mag) Surface Threshold Offset Overrun Length
18L 147 ft / 45 m 9,126 ft / 2,782 m 178.49° 173.84° Concrete 0 ft / 0 m 0 ft / 0 m
18R 98 ft / 30 m 8,011 ft / 2,442 m 178.28° 173.63° Concrete 0 ft / 0 m 0 ft / 0 m
36L 98 ft / 30 m 8,011 ft / 2,442 m 358.28° 353.63° Concrete 0 ft / 0 m 0 ft / 0 m
36R 147 ft / 45 m 9,126 ft / 2,782 m 358.49° 353.84° Concrete 0 ft / 0 m 0 ft / 0 m